Time;durP1;ratioP1;P1;durP2;ratioP2;P2;SDS_P1;SDS_P2;PMS_P1;PMS_P2;Temp;Humidity;BMP_temperature;BMP_pressure;BME280_temperature;BME280_humidity;BME280_pressure;Samples;Min_cycle;Max_cycle;Signal;HPM_P1;HPM_P2
2023/09/19 00:00:01;;;;;;;0.10;0.10;;;;;;;;;;5141649;27;19919;-46
2023/09/19 00:02:27;;;;;;;0.10;0.10;;;;;;;;;;5141485;27;20047;-44
2023/09/19 00:04:53;;;;;;;0.10;0.10;;;;;;;;;;5140088;27;20051;-47
2023/09/19 00:07:19;;;;;;;0.10;0.10;;;;;;;;;;5134757;27;20071;-45
2023/09/19 00:09:44;;;;;;;0.10;0.10;;;;;;;;;;5127002;28;20189;-45
2023/09/19 00:12:10;;;;;;;0.10;0.10;;;;;;;;;;5127023;28;20039;-46
2023/09/19 00:14:36;;;;;;;0.10;0.10;;;;;;;;;;5128249;28;20070;-46
2023/09/19 00:17:08;;;;;;;0.10;0.10;;;;;;;;;;5128096;28;20558;-46
2023/09/19 00:19:34;;;;;;;0.10;0.10;;;;;;;;;;5127115;28;20050;-46
2023/09/19 00:22:00;;;;;;;0.10;0.10;;;;;;;;;;5127815;27;20087;-43
2023/09/19 00:24:27;;;;;;;0.10;0.10;;;;;;;;;;5127430;28;20071;-45
2023/09/19 00:26:54;;;;;;;0.00;0.00;;;;;;;;;;5126436;28;20047;-43
2023/09/19 00:29:19;;;;;;;0.10;0.10;;;;;;;;;;5126728;27;20054;-45
2023/09/19 00:31:45;;;;;;;0.10;0.10;;;;;;;;;;5126255;28;20043;-43
2023/09/19 00:34:10;;;;;;;0.10;0.10;;;;;;;;;;5127232;27;20211;-47
2023/09/19 00:36:39;;;;;;;0.10;0.10;;;;;;;;;;5127862;27;20074;-45
2023/09/19 00:39:05;;;;;;;;;;;;;;;;;;5125558;27;20061;-42
2023/09/19 00:41:32;;;;;;;0.10;0.10;;;;;;;;;;5126641;27;19958;-47
2023/09/19 00:43:59;;;;;;;0.10;0.10;;;;;;;;;;5127048;28;20082;-45
2023/09/19 00:46:25;;;;;;;0.10;0.10;;;;;;;;;;5127053;28;20475;-46
2023/09/19 00:48:51;;;;;;;0.10;0.10;;;;;;;;;;5127164;28;20559;-43
2023/09/19 00:51:20;;;;;;;0.10;0.10;;;;;;;;;;5125318;28;20488;-47
2023/09/19 00:53:46;;;;;;;0.10;0.10;;;;;;;;;;5126995;28;20051;-46
2023/09/19 00:56:12;;;;;;;0.10;0.10;;;;;;;;;;5127792;28;20047;-43
2023/09/19 00:58:38;;;;;;;0.10;0.10;;;;;;;;;;5126312;28;20104;-45
2023/09/19 01:01:06;;;;;;;0.10;0.10;;;;;;;;;;5126582;27;20058;-47
2023/09/19 01:03:32;;;;;;;;;;;;;;;;;;5127725;28;20059;-43
2023/09/19 01:06:00;;;;;;;0.10;0.10;;;;;;;;;;5126688;27;19945;-46
2023/09/19 01:08:29;;;;;;;0.10;0.10;;;;;;;;;;5126459;28;20050;-47
2023/09/19 01:10:59;;;;;;;0.10;0.10;;;;;;;;;;5126364;28;20051;-47
2023/09/19 01:13:30;;;;;;;0.10;0.10;;;;;;;;;;5127478;28;20051;-45
2023/09/19 01:16:02;;;;;;;0.10;0.10;;;;;;;;;;5126758;28;20475;-45
2023/09/19 01:18:33;;;;;;;0.10;0.10;;;;;;;;;;5125683;27;20138;-42
2023/09/19 01:21:06;;;;;;;0.10;0.10;;;;;;;;;;5125934;27;20047;-45
2023/09/19 01:23:51;;;;;;;0.10;0.10;;;;;;;;;;5125525;28;20050;-46
2023/09/19 01:26:30;;;;;;;0.10;0.10;;;;;;;;;;5110410;28;20043;-47
2023/09/19 01:29:07;;;;;;;0.10;0.10;;;;;;;;;;5125087;28;20047;-46
2023/09/19 01:31:35;;;;;;;0.10;0.10;;;;;;;;;;5125636;28;20167;-47
2023/09/19 01:34:04;;;;;;;0.10;0.10;;;;;;;;;;5125229;28;20086;-47
2023/09/19 01:36:33;;;;;;;0.10;0.10;;;;;;;;;;5126198;27;20277;-43
2023/09/19 01:39:05;;;;;;;0.10;0.10;;;;;;;;;;5114527;27;20043;-44
2023/09/19 01:41:38;;;;;;;0.10;0.10;;;;;;;;;;5125633;27;20046;-47
2023/09/19 01:44:06;;;;;;;0.10;0.10;;;;;;;;;;5125410;27;20039;-43
2023/09/19 01:46:35;;;;;;;0.10;0.10;;;;;;;;;;5126305;27;20077;-46
2023/09/19 01:49:09;;;;;;;0.10;0.10;;;;;;;;;;5125801;27;20065;-44
2023/09/19 01:51:40;;;;;;;0.10;0.10;;;;;;;;;;5124931;27;20134;-43
2023/09/19 01:54:11;;;;;;;0.10;0.10;;;;;;;;;;5126005;28;20051;-43
2023/09/19 01:56:40;;;;;;;0.10;0.10;;;;;;;;;;5125800;28;20062;-44
2023/09/19 01:59:13;;;;;;;0.10;0.10;;;;;;;;;;5124778;28;20067;-47
2023/09/19 02:01:40;;;;;;;0.10;0.10;;;;;;;;;;5126208;28;20050;-45
2023/09/19 02:04:05;;;;;;;0.10;0.10;;;;;;;;;;5122739;28;20044;-46
2023/09/19 02:06:31;;;;;;;0.10;0.10;;;;;;;;;;5105318;28;20050;-47
2023/09/19 02:08:57;;;;;;;0.10;0.10;;;;;;;;;;5118444;28;20051;-43
2023/09/19 02:11:23;;;;;;;0.10;0.10;;;;;;;;;;5125384;28;20047;-45
2023/09/19 02:13:54;;;;;;;0.10;0.10;;;;;;;;;;5126454;28;20047;-47
2023/09/19 02:16:20;;;;;;;0.10;0.10;;;;;;;;;;5126386;28;20112;-44
2023/09/19 02:18:51;;;;;;;0.10;0.10;;;;;;;;;;5125629;28;20051;-45
2023/09/19 02:21:17;;;;;;;0.10;0.10;;;;;;;;;;5124884;27;20059;-45
2023/09/19 02:23:43;;;;;;;0.10;0.10;;;;;;;;;;5125368;28;20138;-47
2023/09/19 02:26:09;;;;;;;0.10;0.10;;;;;;;;;;5125629;28;20436;-43
2023/09/19 02:28:35;;;;;;;0.17;0.17;;;;;;;;;;5124477;27;20502;-45
2023/09/19 02:31:01;;;;;;;0.10;0.10;;;;;;;;;;5125901;28;20057;-44
2023/09/19 02:33:28;;;;;;;0.10;0.10;;;;;;;;;;5126747;28;20148;-48
2023/09/19 02:35:57;;;;;;;0.10;0.10;;;;;;;;;;5125829;28;20530;-45
2023/09/19 02:38:24;;;;;;;0.10;0.10;;;;;;;;;;5117452;27;20583;-47
2023/09/19 02:40:50;;;;;;;0.10;0.10;;;;;;;;;;5126145;27;20061;-44
2023/09/19 02:43:16;;;;;;;0.10;0.10;;;;;;;;;;5124454;27;20055;-44
2023/09/19 02:45:42;;;;;;;0.10;0.10;;;;;;;;;;5124521;28;20043;-45
2023/09/19 02:48:08;;;;;;;0.10;0.10;;;;;;;;;;5124927;28;20078;-46
2023/09/19 02:50:33;;;;;;;0.10;0.10;;;;;;;;;;5124464;28;20039;-44
2023/09/19 02:52:59;;;;;;;0.10;0.10;;;;;;;;;;5124177;28;20493;-45
2023/09/19 02:55:25;;;;;;;0.10;0.10;;;;;;;;;;5125003;28;20519;-46
2023/09/19 02:57:51;;;;;;;0.10;0.10;;;;;;;;;;5125596;28;20054;-46
2023/09/19 03:00:21;;;;;;;0.10;0.10;;;;;;;;;;5124714;28;20210;-45
2023/09/19 03:02:49;;;;;;;0.10;0.10;;;;;;;;;;5123486;28;20046;-46
2023/09/19 03:05:15;;;;;;;0.10;0.10;;;;;;;;;;5095701;28;20433;-47
2023/09/19 03:07:42;;;;;;;0.10;0.10;;;;;;;;;;5087403;28;20054;-46
2023/09/19 03:10:08;;;;;;;0.10;0.10;;;;;;;;;;5123338;27;20050;-45
2023/09/19 03:12:34;;;;;;;0.10;0.10;;;;;;;;;;5124825;28;20093;-46
2023/09/19 03:15:00;;;;;;;0.10;0.10;;;;;;;;;;5124289;28;20074;-46
2023/09/19 03:17:25;;;;;;;0.10;0.10;;;;;;;;;;5124621;28;20051;-47
2023/09/19 03:19:51;;;;;;;0.10;0.10;;;;;;;;;;5125073;27;20047;-44
2023/09/19 03:22:17;;;;;;;0.10;0.10;;;;;;;;;;5122189;28;20054;-47
2023/09/19 03:24:43;;;;;;;0.10;0.10;;;;;;;;;;5124295;28;20107;-46
2023/09/19 03:27:10;;;;;;;0.10;0.10;;;;;;;;;;5124760;28;20537;-45
2023/09/19 03:29:35;;;;;;;0.10;0.10;;;;;;;;;;5122958;28;20043;-45
2023/09/19 03:32:01;;;;;;;0.10;0.10;;;;;;;;;;5125360;28;20084;-45
2023/09/19 03:34:27;;;;;;;0.10;0.10;;;;;;;;;;5125323;28;20208;-46
2023/09/19 03:36:52;;;;;;;0.10;0.10;;;;;;;;;;5124826;28;20531;-46
2023/09/19 03:39:18;;;;;;;0.10;0.10;;;;;;;;;;5120030;27;20137;-46
2023/09/19 03:41:45;;;;;;;0.10;0.10;;;;;;;;;;5125935;27;20047;-47
2023/09/19 03:44:10;;;;;;;0.10;0.10;;;;;;;;;;5128146;28;20103;-47
2023/09/19 03:46:36;;;;;;;0.10;0.10;;;;;;;;;;5127557;27;20055;-46
2023/09/19 03:49:02;;;;;;;0.10;0.10;;;;;;;;;;5128196;27;20047;-47
2023/09/19 03:51:28;;;;;;;0.10;0.10;;;;;;;;;;5127966;28;20040;-45
2023/09/19 03:53:53;;;;;;;0.10;0.10;;;;;;;;;;5129274;28;20062;-46
2023/09/19 03:56:19;;;;;;;0.10;0.10;;;;;;;;;;5128660;28;20051;-46
2023/09/19 03:58:44;;;;;;;0.20;0.20;;;;;;;;;;5128488;28;20110;-46
2023/09/19 04:01:10;;;;;;;0.10;0.10;;;;;;;;;;5128618;28;20702;-45
2023/09/19 04:03:46;;;;;;;0.10;0.10;;;;;;;;;;5121469;28;20054;-45
2023/09/19 04:06:12;;;;;;;0.10;0.10;;;;;;;;;;5127384;28;20046;-44
2023/09/19 04:08:38;;;;;;;0.10;0.10;;;;;;;;;;5127157;27;20097;-47
2023/09/19 04:11:03;;;;;;;0.10;0.10;;;;;;;;;;5127684;28;20051;-43
2023/09/19 04:13:29;;;;;;;0.10;0.10;;;;;;;;;;5126929;28;20061;-46
2023/09/19 04:15:55;;;;;;;0.10;0.10;;;;;;;;;;5127162;28;20189;-47
2023/09/19 04:18:22;;;;;;;0.10;0.10;;;;;;;;;;5127911;28;20167;-47
2023/09/19 04:20:49;;;;;;;0.10;0.10;;;;;;;;;;5127986;27;20106;-45
2023/09/19 04:23:14;;;;;;;0.10;0.10;;;;;;;;;;5126193;27;20403;-46
2023/09/19 04:25:40;;;;;;;0.10;0.10;;;;;;;;;;5127102;28;20538;-47
2023/09/19 04:28:06;;;;;;;0.10;0.10;;;;;;;;;;5126631;28;20047;-46
2023/09/19 04:30:31;;;;;;;0.10;0.10;;;;;;;;;;5126843;28;20087;-48
2023/09/19 04:32:57;;;;;;;0.10;0.10;;;;;;;;;;5126710;28;20082;-44
2023/09/19 04:35:22;;;;;;;0.10;0.10;;;;;;;;;;5127404;28;20051;-43
2023/09/19 04:37:50;;;;;;;0.10;0.10;;;;;;;;;;5125998;27;20043;-47
2023/09/19 04:40:17;;;;;;;0.10;0.10;;;;;;;;;;5140986;27;20043;-44
2023/09/19 04:42:44;;;;;;;0.10;0.10;;;;;;;;;;5135610;27;20047;-45
2023/09/19 04:45:10;;;;;;;0.10;0.10;;;;;;;;;;5126620;28;20151;-44
2023/09/19 04:47:38;;;;;;;0.10;0.10;;;;;;;;;;5125376;27;20051;-45
2023/09/19 04:50:04;;;;;;;0.10;0.10;;;;;;;;;;5124939;28;20134;-45
2023/09/19 04:52:30;;;;;;;0.10;0.10;;;;;;;;;;5125149;27;20065;-45
2023/09/19 04:54:56;;;;;;;0.10;0.10;;;;;;;;;;5119998;28;20399;-48
2023/09/19 04:57:22;;;;;;;0.30;0.30;;;;;;;;;;5124732;28;20051;-44
2023/09/19 04:59:48;;;;;;;0.10;0.10;;;;;;;;;;5121597;27;20206;-48
2023/09/19 05:02:13;;;;;;;0.10;0.10;;;;;;;;;;5122053;28;20046;-45
2023/09/19 05:04:39;;;;;;;0.10;0.10;;;;;;;;;;5119087;27;20108;-46
2023/09/19 05:07:05;;;;;;;0.10;0.10;;;;;;;;;;5124664;28;20047;-44
2023/09/19 05:09:33;;;;;;;0.10;0.10;;;;;;;;;;5121764;28;20115;-47
2023/09/19 05:11:58;;;;;;;;;;;;;;;;;;5126399;28;20047;-45
2023/09/19 05:14:24;;;;;;;0.10;0.10;;;;;;;;;;5125029;28;20268;-44
2023/09/19 05:16:50;;;;;;;0.10;0.10;;;;;;;;;;5125619;28;20054;-45
2023/09/19 05:19:15;;;;;;;0.20;0.20;;;;;;;;;;5125492;28;20047;-45
2023/09/19 05:21:41;;;;;;;0.10;0.10;;;;;;;;;;5123723;28;20043;-43
2023/09/19 05:24:07;;;;;;;0.10;0.10;;;;;;;;;;5119614;28;20059;-43
2023/09/19 05:26:36;;;;;;;0.10;0.10;;;;;;;;;;5121986;28;20042;-46
2023/09/19 05:29:03;;;;;;;0.10;0.10;;;;;;;;;;5122268;28;20415;-46
2023/09/19 05:31:28;;;;;;;0.05;0.05;;;;;;;;;;5125593;28;20050;-44
2023/09/19 05:33:55;;;;;;;0.10;0.10;;;;;;;;;;5120783;28;20047;-44
2023/09/19 05:36:20;;;;;;;0.10;0.10;;;;;;;;;;5119985;28;20068;-44
2023/09/19 05:38:49;;;;;;;0.10;0.10;;;;;;;;;;5121261;27;20047;-42
2023/09/19 05:41:15;;;;;;;0.10;0.10;;;;;;;;;;5119858;27;20043;-47
2023/09/19 05:43:41;;;;;;;0.10;0.10;;;;;;;;;;5113035;27;20058;-47
2023/09/19 05:46:08;;;;;;;0.10;0.10;;;;;;;;;;5114171;27;20089;-48
2023/09/19 05:48:33;;;;;;;0.20;0.20;;;;;;;;;;5111152;27;20451;-45
2023/09/19 05:51:00;;;;;;;0.10;0.10;;;;;;;;;;5116210;27;20054;-46
2023/09/19 05:53:26;;;;;;;0.10;0.10;;;;;;;;;;5108012;27;20091;-43
2023/09/19 05:55:53;;;;;;;0.10;0.10;;;;;;;;;;5110858;27;20229;-44
2023/09/19 05:58:19;;;;;;;0.10;0.10;;;;;;;;;;5106328;27;20955;-42
2023/09/19 06:00:47;;;;;;;0.10;0.10;;;;;;;;;;5102601;27;20405;-43
2023/09/19 06:03:14;;;;;;;0.10;0.10;;;;;;;;;;5106687;27;20082;-43
2023/09/19 06:05:41;;;;;;;0.10;0.10;;;;;;;;;;5108505;27;20562;-45
2023/09/19 06:08:07;;;;;;;0.10;0.10;;;;;;;;;;5111698;27;20522;-46
2023/09/19 06:10:34;;;;;;;0.10;0.10;;;;;;;;;;5108780;27;20058;-41
2023/09/19 06:13:00;;;;;;;0.10;0.10;;;;;;;;;;5110483;27;20043;-46
2023/09/19 06:15:26;;;;;;;0.10;0.10;;;;;;;;;;5114840;27;20139;-46
2023/09/19 06:17:55;;;;;;;0.10;0.10;;;;;;;;;;5108626;27;20047;-46
2023/09/19 06:20:22;;;;;;;0.10;0.10;;;;;;;;;;5099203;27;20047;-43
2023/09/19 06:22:48;;;;;;;0.10;0.10;;;;;;;;;;5101985;27;20374;-44
2023/09/19 06:25:21;;;;;;;0.10;0.10;;;;;;;;;;5102728;27;20327;-42
2023/09/19 06:27:52;;;;;;;0.10;0.10;;;;;;;;;;5097410;27;20090;-44
2023/09/19 06:30:17;;;;;;;0.10;0.10;;;;;;;;;;5101468;27;20455;-46
2023/09/19 06:32:44;;;;;;;0.10;0.10;;;;;;;;;;5100530;27;20047;-49
2023/09/19 06:35:11;;;;;;;0.10;0.10;;;;;;;;;;5101000;27;20153;-48
2023/09/19 06:37:40;;;;;;;0.10;0.10;;;;;;;;;;5104404;27;20077;-48
2023/09/19 06:40:13;;;;;;;0.10;0.10;;;;;;;;;;5100851;27;20052;-48
2023/09/19 06:42:47;;;;;;;0.10;0.10;;;;;;;;;;5102665;27;20786;-48
2023/09/19 06:45:17;;;;;;;0.10;0.10;;;;;;;;;;5102286;28;20074;-49
2023/09/19 06:47:44;;;;;;;0.10;0.10;;;;;;;;;;5094694;27;20131;-48
2023/09/19 06:50:13;;;;;;;0.10;0.10;;;;;;;;;;5092563;27;21006;-48
2023/09/19 06:52:41;;;;;;;0.10;0.10;;;;;;;;;;5090384;27;20040;-48
2023/09/19 06:55:07;;;;;;;0.20;0.20;;;;;;;;;;5092945;27;20346;-46
2023/09/19 06:57:32;;;;;;;0.28;0.28;;;;;;;;;;5092071;27;20047;-47
2023/09/19 06:59:58;;;;;;;0.10;0.10;;;;;;;;;;5091702;27;20382;-44
2023/09/19 07:02:23;;;;;;;0.10;0.10;;;;;;;;;;5084826;27;20675;-49
2023/09/19 07:04:49;;;;;;;0.10;0.10;;;;;;;;;;5085539;28;20836;-45
2023/09/19 07:07:16;;;;;;;0.13;0.13;;;;;;;;;;5085010;27;20052;-46
2023/09/19 07:09:42;;;;;;;0.10;0.10;;;;;;;;;;5087455;27;20492;-46
2023/09/19 07:12:08;;;;;;;0.10;0.10;;;;;;;;;;5088785;27;20055;-48
2023/09/19 07:14:33;;;;;;;0.15;0.15;;;;;;;;;;5088627;27;20723;-47
2023/09/19 07:17:00;;;;;;;0.10;0.10;;;;;;;;;;5095155;27;20075;-49
2023/09/19 07:19:28;;;;;;;0.10;0.10;;;;;;;;;;5099612;27;20127;-45
2023/09/19 07:21:53;;;;;;;0.10;0.10;;;;;;;;;;5101938;27;20523;-47
2023/09/19 07:24:21;;;;;;;0.20;0.20;;;;;;;;;;5105376;28;20509;-49
2023/09/19 07:26:48;;;;;;;0.10;0.10;;;;;;;;;;5097982;27;20198;-47
2023/09/19 07:29:13;;;;;;;0.10;0.10;;;;;;;;;;5103590;27;20771;-50
2023/09/19 07:31:39;;;;;;;0.10;0.10;;;;;;;;;;5103614;27;20570;-46
2023/09/19 07:34:06;;;;;;;0.10;0.10;;;;;;;;;;5104598;27;20097;-47
2023/09/19 07:36:34;;;;;;;0.10;0.10;;;;;;;;;;5105203;27;20974;-45
2023/09/19 07:39:00;;;;;;;0.10;0.10;;;;;;;;;;5104417;27;20136;-46
2023/09/19 07:41:38;;;;;;;0.10;0.10;;;;;;;;;;5105807;27;21010;-45
2023/09/19 07:44:04;;;;;;;0.10;0.10;;;;;;;;;;5101984;27;20096;-45
2023/09/19 07:46:31;;;;;;;0.10;0.10;;;;;;;;;;5101907;27;20512;-44
2023/09/19 07:48:57;;;;;;;0.10;0.10;;;;;;;;;;5101135;27;20050;-43
2023/09/19 07:51:22;;;;;;;0.10;0.10;;;;;;;;;;5100972;27;20051;-44
2023/09/19 07:53:48;;;;;;;0.10;0.10;;;;;;;;;;5097185;27;20085;-44
2023/09/19 07:56:14;;;;;;;0.10;0.10;;;;;;;;;;5104953;28;20047;-44
2023/09/19 07:58:42;;;;;;;0.10;0.10;;;;;;;;;;5102059;27;20043;-45
2023/09/19 08:01:10;;;;;;;0.10;0.10;;;;;;;;;;5103169;27;20051;-47
2023/09/19 08:03:40;;;;;;;0.10;0.10;;;;;;;;;;5093639;27;20051;-44
2023/09/19 08:06:07;;;;;;;0.10;0.10;;;;;;;;;;5094301;27;20100;-44
2023/09/19 08:08:36;;;;;;;0.10;0.10;;;;;;;;;;5104184;27;20047;-43
2023/09/19 08:11:04;;;;;;;0.10;0.10;;;;;;;;;;5111587;27;20527;-44
2023/09/19 08:13:31;;;;;;;0.10;0.10;;;;;;;;;;5111867;27;20057;-46
2023/09/19 08:15:56;;;;;;;0.10;0.10;;;;;;;;;;5115813;27;20074;-46
2023/09/19 08:18:22;;;;;;;0.10;0.10;;;;;;;;;;5106945;27;20051;-44
2023/09/19 08:20:52;;;;;;;0.10;0.10;;;;;;;;;;5113208;28;20460;-43
2023/09/19 08:23:19;;;;;;;0.10;0.10;;;;;;;;;;5107547;27;20048;-43
2023/09/19 08:25:45;;;;;;;0.10;0.10;;;;;;;;;;5114723;27;20648;-43
2023/09/19 08:28:13;;;;;;;0.10;0.10;;;;;;;;;;5116297;27;20055;-45
2023/09/19 08:30:40;;;;;;;0.10;0.10;;;;;;;;;;5103909;27;20428;-44
2023/09/19 08:33:07;;;;;;;0.10;0.10;;;;;;;;;;5098858;27;20628;-44
2023/09/19 08:35:33;;;;;;;0.10;0.10;;;;;;;;;;5088130;28;20379;-42
2023/09/19 08:38:00;;;;;;;0.10;0.10;;;;;;;;;;5094652;27;20097;-44
2023/09/19 08:40:28;;;;;;;0.10;0.10;;;;;;;;;;5104586;27;20047;-42
2023/09/19 08:42:54;;;;;;;;;;;;;;;;;;5103583;27;20166;-47
2023/09/19 08:45:22;;;;;;;0.10;0.10;;;;;;;;;;5104790;27;20365;-44
2023/09/19 08:47:53;;;;;;;0.10;0.10;;;;;;;;;;5109396;27;20047;-44
2023/09/19 08:50:25;;;;;;;0.10;0.10;;;;;;;;;;5116530;28;20043;-46
2023/09/19 08:52:54;;;;;;;0.10;0.10;;;;;;;;;;5118472;28;20050;-46
2023/09/19 08:55:23;;;;;;;0.10;0.10;;;;;;;;;;5108482;27;20150;-43
2023/09/19 08:57:49;;;;;;;0.10;0.10;;;;;;;;;;5117861;28;20043;-43
2023/09/19 09:00:18;;;;;;;0.10;0.10;;;;;;;;;;5115858;28;20114;-43
2023/09/19 09:02:44;;;;;;;0.10;0.10;;;;;;;;;;5110304;27;20152;-44
2023/09/19 09:05:11;;;;;;;0.10;0.10;;;;;;;;;;5119867;27;20039;-43
2023/09/19 09:07:37;;;;;;;0.10;0.10;;;;;;;;;;5110097;27;20043;-45
2023/09/19 09:10:03;;;;;;;0.10;0.10;;;;;;;;;;5112177;27;20054;-47
2023/09/19 09:12:29;;;;;;;0.10;0.10;;;;;;;;;;5107821;28;20055;-43
2023/09/19 09:14:57;;;;;;;0.10;0.10;;;;;;;;;;5117436;27;20096;-46
2023/09/19 09:17:23;;;;;;;0.10;0.10;;;;;;;;;;5112201;27;20146;-45
2023/09/19 09:19:48;;;;;;;0.10;0.10;;;;;;;;;;5120630;28;20524;-45
2023/09/19 09:22:16;;;;;;;0.10;0.10;;;;;;;;;;5110489;27;20515;-44
2023/09/19 09:24:58;;;;;;;0.00;0.00;;;;;;;;;;5115964;27;20042;-44
2023/09/19 09:27:24;;;;;;;0.10;0.10;;;;;;;;;;5114259;27;20476;-42
2023/09/19 09:29:50;;;;;;;0.10;0.10;;;;;;;;;;5116787;28;20077;-44
2023/09/19 09:32:18;;;;;;;0.10;0.10;;;;;;;;;;5114602;27;20073;-45
2023/09/19 09:34:44;;;;;;;0.10;0.10;;;;;;;;;;5111973;27;20138;-44
2023/09/19 09:37:20;;;;;;;0.10;0.10;;;;;;;;;;5102656;27;20570;-44
2023/09/19 09:39:58;;;;;;;0.10;0.10;;;;;;;;;;5105407;27;20070;-43
2023/09/19 09:42:39;;;;;;;0.10;0.10;;;;;;;;;;5098131;27;20059;-42
2023/09/19 09:45:13;;;;;;;0.10;0.10;;;;;;;;;;5100121;27;20519;-44
2023/09/19 09:47:59;;;;;;;0.10;0.10;;;;;;;;;;5104662;27;20092;-42
2023/09/19 09:50:36;;;;;;;0.10;0.10;;;;;;;;;;5105463;27;20138;-44
2023/09/19 09:53:06;;;;;;;0.10;0.10;;;;;;;;;;5103998;28;20051;-44
2023/09/19 09:55:52;;;;;;;0.10;0.10;;;;;;;;;;5102895;28;20058;-43
2023/09/19 09:58:18;;;;;;;0.10;0.10;;;;;;;;;;5093784;28;20051;-44
2023/09/19 10:00:59;;;;;;;0.10;0.10;;;;;;;;;;5108616;27;20498;-43
2023/09/19 10:03:34;;;;;;;0.10;0.10;;;;;;;;;;5116103;28;20910;-44
2023/09/19 10:06:02;;;;;;;0.10;0.10;;;;;;;;;;5118333;28;20339;-45
2023/09/19 10:08:31;;;;;;;0.13;0.13;;;;;;;;;;5104424;28;21504;-44
2023/09/19 10:11:04;;;;;;;0.10;0.10;;;;;;;;;;5115130;27;20042;-47
2023/09/19 10:13:31;;;;;;;0.10;0.10;;;;;;;;;;5107414;27;20522;-45
2023/09/19 10:15:58;;;;;;;0.10;0.10;;;;;;;;;;5117164;28;20455;-45
2023/09/19 10:18:25;;;;;;;0.10;0.10;;;;;;;;;;5113632;28;20055;-42
2023/09/19 10:20:51;;;;;;;0.10;0.10;;;;;;;;;;5114495;27;20051;-47
2023/09/19 10:23:22;;;;;;;0.10;0.10;;;;;;;;;;5120854;28;20055;-45
2023/09/19 10:25:48;;;;;;;0.10;0.10;;;;;;;;;;5114932;27;20130;-43
2023/09/19 10:28:15;;;;;;;0.10;0.10;;;;;;;;;;5110511;27;20051;-46
2023/09/19 10:30:44;;;;;;;0.10;0.10;;;;;;;;;;5112527;27;20058;-45
2023/09/19 10:33:12;;;;;;;0.10;0.10;;;;;;;;;;5110474;27;20492;-42
2023/09/19 10:35:40;;;;;;;0.10;0.10;;;;;;;;;;5102392;27;20142;-46
2023/09/19 10:38:06;;;;;;;0.10;0.10;;;;;;;;;;5106810;27;20042;-43
2023/09/19 10:40:32;;;;;;;0.10;0.10;;;;;;;;;;5097516;27;20070;-41
2023/09/19 10:43:00;;;;;;;0.10;0.10;;;;;;;;;;5101327;27;20055;-42
2023/09/19 10:45:28;;;;;;;0.10;0.10;;;;;;;;;;5099242;28;20043;-43
2023/09/19 10:47:54;;;;;;;0.10;0.10;;;;;;;;;;5091076;27;20481;-43
2023/09/19 10:50:21;;;;;;;0.10;0.10;;;;;;;;;;5101446;27;20360;-42
2023/09/19 10:52:50;;;;;;;0.03;0.03;;;;;;;;;;5104594;27;20488;-42
2023/09/19 10:55:15;;;;;;;;;;;;;;;;;;5107024;27;20035;-43
2023/09/19 10:57:44;;;;;;;0.10;0.10;;;;;;;;;;5109767;27;19928;-42
2023/09/19 11:00:26;;;;;;;0.10;0.10;;;;;;;;;;5111795;27;20104;-42
2023/09/19 11:03:11;;;;;;;0.10;0.10;;;;;;;;;;5109376;28;20043;-42
2023/09/19 11:05:40;;;;;;;0.10;0.10;;;;;;;;;;5104906;28;20043;-43
2023/09/19 11:08:07;;;;;;;0.10;0.10;;;;;;;;;;5112601;27;20467;-42
2023/09/19 11:10:49;;;;;;;0.10;0.10;;;;;;;;;;5112979;27;20062;-42
2023/09/19 11:13:31;;;;;;;0.10;0.10;;;;;;;;;;5109636;27;20591;-42
2023/09/19 11:18:52;;;;;;;0.10;0.10;;;;;;;;;;5101607;27;20254;-43
2023/09/19 11:26:47;;;;;;;0.10;0.10;;;;;;;;;;5152505;27;20861;-42
2023/09/19 11:29:28;;;;;;;0.10;0.10;;;;;;;;;;5154965;27;20563;-42
2023/09/19 11:31:57;;;;;;;0.10;0.10;;;;;;;;;;5150817;27;21435;-42
2023/09/19 11:34:39;;;;;;;0.10;0.10;;;;;;;;;;5146875;27;20094;-42
2023/09/19 11:37:25;;;;;;;0.10;0.10;;;;;;;;;;5153936;27;20041;-43
2023/09/19 11:40:09;;;;;;;0.17;0.17;;;;;;;;;;5137468;27;20065;-42
2023/09/19 11:42:50;;;;;;;0.10;0.10;;;;;;;;;;5124507;27;20059;-42
2023/09/19 11:45:35;;;;;;;0.10;0.10;;;;;;;;;;5119517;27;20170;-43
2023/09/19 11:48:02;;;;;;;0.10;0.10;;;;;;;;;;5102637;27;20039;-42
2023/09/19 11:50:30;;;;;;;0.10;0.10;;;;;;;;;;5125258;27;20039;-43
2023/09/19 11:52:57;;;;;;;0.10;0.10;;;;;;;;;;5122150;27;20728;-43
2023/09/19 11:55:24;;;;;;;0.10;0.10;;;;;;;;;;5128345;27;20150;-42
2023/09/19 11:57:51;;;;;;;0.10;0.10;;;;;;;;;;5129452;27;20042;-43
2023/09/19 12:00:18;;;;;;;0.10;0.10;;;;;;;;;;5133736;27;20111;-42
2023/09/19 12:02:46;;;;;;;0.30;0.30;;;;;;;;;;5128115;27;20039;-42
2023/09/19 12:05:12;;;;;;;0.10;0.10;;;;;;;;;;5125453;27;21123;-43
2023/09/19 12:07:47;;;;;;;0.10;0.10;;;;;;;;;;5127989;27;20444;-43
2023/09/19 12:10:14;;;;;;;0.10;0.10;;;;;;;;;;5131396;27;20430;-44
2023/09/19 12:12:41;;;;;;;0.10;0.10;;;;;;;;;;5133898;27;20047;-42
2023/09/19 12:15:07;;;;;;;0.10;0.10;;;;;;;;;;5124556;27;20057;-42
2023/09/19 12:17:37;;;;;;;0.10;0.10;;;;;;;;;;5133484;27;20073;-43
2023/09/19 12:20:12;;;;;;;0.10;0.10;;;;;;;;;;5139558;27;20078;-43
2023/09/19 12:22:39;;;;;;;0.10;0.10;;;;;;;;;;5140422;27;20053;-43
2023/09/19 12:25:05;;;;;;;0.10;0.10;;;;;;;;;;5136763;27;20035;-42
2023/09/19 12:27:42;;;;;;;0.10;0.10;;;;;;;;;;5125468;27;20053;-43
2023/09/19 12:30:09;;;;;;;0.10;0.10;;;;;;;;;;5130451;27;20079;-42
2023/09/19 12:32:50;;;;;;;0.10;0.10;;;;;;;;;;5134147;27;20317;-42
2023/09/19 12:35:34;;;;;;;0.10;0.10;;;;;;;;;;5138481;27;20654;-42
2023/09/19 12:38:00;;;;;;;0.10;0.10;;;;;;;;;;5129761;27;20147;-45
2023/09/19 12:40:28;;;;;;;0.10;0.10;;;;;;;;;;5121605;28;20495;-42
2023/09/19 12:42:56;;;;;;;0.10;0.10;;;;;;;;;;5123605;28;20332;-42
2023/09/19 12:45:21;;;;;;;0.10;0.10;;;;;;;;;;5117407;28;20691;-42
2023/09/19 12:48:07;;;;;;;0.10;0.10;;;;;;;;;;5124802;28;20047;-43
2023/09/19 12:50:33;;;;;;;0.10;0.10;;;;;;;;;;5109629;28;20043;-42
2023/09/19 12:53:00;;;;;;;0.15;0.10;;;;;;;;;;5124652;28;20083;-43
2023/09/19 12:55:26;;;;;;;0.10;0.10;;;;;;;;;;5121419;28;20050;-42
2023/09/19 12:58:07;;;;;;;0.10;0.10;;;;;;;;;;5109357;27;20553;-42
2023/09/19 13:00:34;;;;;;;0.10;0.10;;;;;;;;;;5123146;28;20058;-42
2023/09/19 13:03:22;;;;;;;0.10;0.10;;;;;;;;;;5124077;28;20491;-41
2023/09/19 13:05:50;;;;;;;0.10;0.10;;;;;;;;;;5112238;27;20074;-42
2023/09/19 13:08:18;;;;;;;0.10;0.10;;;;;;;;;;5130170;27;20134;-42
2023/09/19 13:11:21;;;;;;;0.10;0.10;;;;;;;;;;5120002;27;20551;-44
2023/09/19 13:14:08;;;;;;;0.10;0.10;;;;;;;;;;5112317;28;20404;-43
2023/09/19 13:16:33;;;;;;;0.10;0.10;;;;;;;;;;5110052;28;20047;-43
2023/09/19 13:18:59;;;;;;;0.10;0.10;;;;;;;;;;5121350;28;20125;-42
2023/09/19 13:21:29;;;;;;;0.10;0.10;;;;;;;;;;5135490;27;20141;-47
2023/09/19 13:23:59;;;;;;;0.10;0.10;;;;;;;;;;5132673;27;20043;-42
2023/09/19 13:26:25;;;;;;;0.10;0.10;;;;;;;;;;5126252;28;20158;-42
2023/09/19 13:28:51;;;;;;;0.10;0.10;;;;;;;;;;5124370;28;20050;-44
2023/09/19 13:31:16;;;;;;;0.10;0.10;;;;;;;;;;5110230;28;20048;-43
2023/09/19 13:33:43;;;;;;;0.10;0.10;;;;;;;;;;5110169;27;20087;-45
2023/09/19 13:36:09;;;;;;;0.10;0.10;;;;;;;;;;5125206;28;20634;-44
2023/09/19 13:38:34;;;;;;;0.10;0.10;;;;;;;;;;5126298;28;20128;-42
2023/09/19 13:41:01;;;;;;;0.10;0.10;;;;;;;;;;5127784;28;20104;-43
2023/09/19 13:43:28;;;;;;;0.10;0.10;;;;;;;;;;5127688;28;20310;-44
2023/09/19 13:45:54;;;;;;;0.10;0.10;;;;;;;;;;5127958;28;20100;-44
2023/09/19 13:48:22;;;;;;;0.10;0.10;;;;;;;;;;5124071;27;20055;-42
2023/09/19 13:50:48;;;;;;;0.10;0.10;;;;;;;;;;5110044;28;20104;-43
2023/09/19 13:53:14;;;;;;;0.52;0.20;;;;;;;;;;5126081;28;20302;-42
2023/09/19 13:55:40;;;;;;;0.10;0.10;;;;;;;;;;5126224;28;20485;-43
2023/09/19 13:58:06;;;;;;;0.10;0.10;;;;;;;;;;5119539;28;20043;-43
2023/09/19 14:00:34;;;;;;;0.10;0.10;;;;;;;;;;5106006;28;20097;-42
2023/09/19 14:03:00;;;;;;;0.10;0.10;;;;;;;;;;5107123;28;20067;-42
2023/09/19 14:05:27;;;;;;;0.10;0.10;;;;;;;;;;5123456;28;20146;-43
2023/09/19 14:07:55;;;;;;;0.10;0.10;;;;;;;;;;5125745;28;20051;-43
2023/09/19 14:10:21;;;;;;;0.10;0.10;;;;;;;;;;5125110;28;20054;-42
2023/09/19 14:12:47;;;;;;;0.10;0.10;;;;;;;;;;5124664;28;20074;-42
2023/09/19 14:15:13;;;;;;;0.13;0.13;;;;;;;;;;5107278;28;20090;-41
2023/09/19 14:17:42;;;;;;;0.10;0.10;;;;;;;;;;5124038;28;20054;-43
2023/09/19 14:20:10;;;;;;;0.10;0.10;;;;;;;;;;5108950;28;20098;-42
2023/09/19 14:22:36;;;;;;;;;;;;;;;;;;5126692;27;20058;-41
2023/09/19 14:25:04;;;;;;;0.10;0.10;;;;;;;;;;5126443;27;19919;-42
2023/09/19 14:27:29;;;;;;;0.10;0.10;;;;;;;;;;5124960;28;20635;-43
2023/09/19 14:29:56;;;;;;;0.20;0.20;;;;;;;;;;5105047;28;20047;-42
2023/09/19 14:32:22;;;;;;;0.10;0.10;;;;;;;;;;5106157;28;20605;-42
2023/09/19 14:34:48;;;;;;;0.10;0.10;;;;;;;;;;5115150;27;20051;-42
2023/09/19 14:37:16;;;;;;;0.10;0.10;;;;;;;;;;5126846;28;20047;-43
2023/09/19 14:39:44;;;;;;;0.10;0.10;;;;;;;;;;5107341;28;20050;-42
2023/09/19 14:42:10;;;;;;;0.10;0.10;;;;;;;;;;5107701;28;20086;-43
2023/09/19 14:44:37;;;;;;;0.10;0.10;;;;;;;;;;5126475;28;20043;-42
2023/09/19 14:47:04;;;;;;;0.10;0.10;;;;;;;;;;5122925;27;20389;-42
2023/09/19 14:49:33;;;;;;;0.10;0.10;;;;;;;;;;5125990;28;20043;-42
2023/09/19 14:51:59;;;;;;;0.10;0.10;;;;;;;;;;5126945;28;20395;-43
2023/09/19 14:54:24;;;;;;;0.10;0.10;;;;;;;;;;5126183;28;20204;-43
2023/09/19 14:56:53;;;;;;;0.10;0.10;;;;;;;;;;5124614;27;20054;-42
2023/09/19 14:59:20;;;;;;;0.10;0.10;;;;;;;;;;5122089;27;20035;-42